createdAt,value
2023-03-27T14:25:36.351Z,22.00
2023-03-27T14:28:04.969Z,18.81
2023-03-27T14:30:50.207Z,18.83
2023-03-27T14:33:20.599Z,20.28
2023-03-27T14:35:56.795Z,22.68
2023-03-27T14:38:29.037Z,23.16
2023-03-27T14:40:58.134Z,23.46
2023-03-27T14:43:27.543Z,22.86
2023-03-27T14:46:01.647Z,22.81
2023-03-27T14:48:37.188Z,23.40
2023-03-27T14:51:14.235Z,23.70
2023-03-27T14:53:46.167Z,23.94
2023-03-27T14:56:22.393Z,21.98
2023-03-27T14:58:51.405Z,20.49
2023-03-27T15:01:18.703Z,17.78
2023-03-27T15:03:46.446Z,17.41
2023-03-27T15:06:17.261Z,18.85
2023-03-27T15:08:49.917Z,19.64
2023-03-27T15:11:20.522Z,16.70
2023-03-27T15:13:48.353Z,16.08
2023-03-27T15:16:26.103Z,14.08
2023-03-27T15:19:09.691Z,13.66
2023-03-27T15:21:53.118Z,16.85
2023-03-27T15:24:49.224Z,14.72
2023-03-27T15:27:40.617Z,12.32
2023-03-27T15:30:31.954Z,14.22
2023-03-27T15:33:02.260Z,13.29
2023-03-27T15:35:41.777Z,11.22
2023-03-27T15:38:13.977Z,9.68
2023-03-27T15:40:45.324Z,9.07
2023-03-27T15:43:12.832Z,9.30
2023-03-27T15:46:14.569Z,9.11
2023-03-27T15:48:49.461Z,8.45
2023-03-27T15:51:19.666Z,8.02
2023-03-27T15:53:56.148Z,7.72
2023-03-27T15:56:38.596Z,7.67
2023-03-27T15:59:07.762Z,7.51
2023-03-27T16:01:35.929Z,7.59
2023-03-27T16:04:16.998Z,7.45
2023-03-27T16:06:51.203Z,7.26
2023-03-27T16:09:21.276Z,7.16
2023-03-27T16:11:49.519Z,7.12
2023-03-27T16:14:30.443Z,7.07
2023-03-27T16:17:14.728Z,6.94
2023-03-27T16:19:52.036Z,6.66
2023-03-27T16:22:32.374Z,6.44
2023-03-27T16:25:01.352Z,5.77
2023-03-27T16:27:36.364Z,5.44
2023-03-27T16:30:18.932Z,5.03
2023-03-27T16:32:46.414Z,4.99
2023-03-27T16:35:13.605Z,4.87
2023-03-27T16:37:41.202Z,4.97
2023-03-27T16:40:08.941Z,5.01
2023-03-27T16:42:36.145Z,4.86
2023-03-27T16:45:05.368Z,4.98
2023-03-27T16:47:32.677Z,4.92
2023-03-27T16:50:10.986Z,4.86
2023-03-27T16:52:38.981Z,4.88
2023-03-27T16:55:07.697Z,4.77
2023-03-27T16:57:36.307Z,4.79
2023-03-27T17:00:05.401Z,4.71
2023-03-27T17:02:34.786Z,4.69
2023-03-27T17:05:04.213Z,4.72
2023-03-27T17:07:32.651Z,4.65
2023-03-27T17:09:59.838Z,4.57
2023-03-27T17:12:28.974Z,4.41
2023-03-27T17:14:58.619Z,4.48
2023-03-27T17:17:27.486Z,4.54
2023-03-27T17:19:55.298Z,4.49
2023-03-27T17:22:22.481Z,4.31
2023-03-27T17:24:57.254Z,4.41
2023-03-27T17:27:28.332Z,4.34
2023-03-27T17:29:56.091Z,4.31
2023-03-27T17:32:25.379Z,4.22
2023-03-27T17:34:52.794Z,4.19
2023-03-27T17:37:21.079Z,4.29
2023-03-27T17:39:48.836Z,4.22
2023-03-27T17:42:16.044Z,4.19
2023-03-27T17:44:45.048Z,3.95
2023-03-27T17:47:13.027Z,4.02
2023-03-27T17:49:40.970Z,3.99
2023-03-27T17:52:11.286Z,3.89
2023-03-27T17:54:38.947Z,3.93
2023-03-27T17:57:06.526Z,3.88
2023-03-27T17:59:33.791Z,3.83
2023-03-27T18:02:01.226Z,3.87
2023-03-27T18:04:29.391Z,3.71
2023-03-27T18:06:57.083Z,3.69
2023-03-27T18:09:24.968Z,3.60
2023-03-27T18:11:52.253Z,3.62
2023-03-27T18:14:19.720Z,3.59
2023-03-27T18:16:46.946Z,3.65
2023-03-27T18:19:20.351Z,3.57
2023-03-27T18:21:51.899Z,3.57
2023-03-27T18:24:21.458Z,3.59
2023-03-27T18:26:49.723Z,3.57
2023-03-27T18:29:26.141Z,3.59
2023-03-27T18:31:56.031Z,3.53
2023-03-27T18:34:23.302Z,3.48
2023-03-27T18:36:51.721Z,3.58
2023-03-27T18:39:19.773Z,3.67
2023-03-27T18:41:47.036Z,3.57
2023-03-27T18:44:14.282Z,3.61
2023-03-27T18:46:41.417Z,3.44
2023-03-27T18:49:21.553Z,3.37
2023-03-27T18:51:51.431Z,3.27
2023-03-27T18:54:18.552Z,3.20
2023-03-27T18:56:46.037Z,3.08
2023-03-27T18:59:14.336Z,2.90
2023-03-27T19:01:41.713Z,2.84
2023-03-27T19:04:09.708Z,2.87
2023-03-27T19:06:37.031Z,2.84
2023-03-27T19:09:05.710Z,2.81
2023-03-27T19:11:33.068Z,2.74
2023-03-27T19:14:00.344Z,2.67
2023-03-27T19:16:27.607Z,2.69
2023-03-27T19:18:54.819Z,2.66
2023-03-27T19:21:22.058Z,2.69
2023-03-27T19:23:49.326Z,2.61
2023-03-27T19:26:17.404Z,2.65
2023-03-27T19:28:47.414Z,2.56
2023-03-27T19:35:20.729Z,2.45
2023-03-27T19:37:47.984Z,2.43
2023-03-27T19:40:15.444Z,2.47
2023-03-27T19:42:42.945Z,2.52
2023-03-27T19:45:10.398Z,2.45
2023-03-27T19:47:37.711Z,2.41
2023-03-27T19:50:07.080Z,2.35
2023-03-27T19:52:34.871Z,2.30
2023-03-27T19:55:02.150Z,2.23
2023-03-27T19:57:29.592Z,2.21
2023-03-27T19:59:56.812Z,2.34
2023-03-27T20:02:24.055Z,2.32
2023-03-27T20:04:54.381Z,2.26
2023-03-27T20:07:21.655Z,2.27
2023-03-27T20:09:48.914Z,2.26
2023-03-27T20:12:18.230Z,2.36
2023-03-27T20:14:53.920Z,2.38
2023-03-27T20:17:29.423Z,2.31
2023-03-27T20:19:56.864Z,2.37
2023-03-27T20:22:24.178Z,2.45
2023-03-27T20:24:51.339Z,2.43
2023-03-27T20:27:21.501Z,2.34
2023-03-27T20:29:49.181Z,2.26
2023-03-27T20:32:16.587Z,2.22
2023-03-27T20:34:46.202Z,2.23
2023-03-27T20:37:13.543Z,2.24
2023-03-27T20:39:44.639Z,2.23
2023-03-27T20:42:15.745Z,2.24
2023-03-27T20:44:45.109Z,2.18
2023-03-27T20:47:13.280Z,2.20
2023-03-27T20:49:44.533Z,2.23
2023-03-27T20:52:14.626Z,2.16
2023-03-27T20:54:42.128Z,2.02
2023-03-27T20:57:09.466Z,2.01
2023-03-27T20:59:36.789Z,2.04
2023-03-27T21:02:05.061Z,2.05
2023-03-27T21:04:32.340Z,2.10
2023-03-27T21:06:59.598Z,2.13
2023-03-27T21:09:27.408Z,2.17
2023-03-27T21:11:55.591Z,2.11
2023-03-27T21:14:23.048Z,2.08
2023-03-27T21:16:50.503Z,2.06
2023-03-27T21:19:18.020Z,2.05
2023-03-27T21:21:45.450Z,1.95
2023-03-27T21:24:13.383Z,1.81
2023-03-27T21:26:41.474Z,1.84
2023-03-27T21:29:11.801Z,1.90
2023-03-27T21:31:39.508Z,1.90
2023-03-27T21:34:06.793Z,1.80
2023-03-27T21:36:34.086Z,1.87
2023-03-27T21:39:01.366Z,1.92
2023-03-27T21:41:28.913Z,1.87
2023-03-27T21:43:56.305Z,1.81
2023-03-27T21:46:23.656Z,1.71
2023-03-27T21:48:51.504Z,1.64
2023-03-27T21:51:19.096Z,1.59
2023-03-27T21:53:46.480Z,1.53
2023-03-27T21:56:13.776Z,1.57
2023-03-27T21:58:41.005Z,1.54
2023-03-27T22:01:08.376Z,1.49
2023-03-27T22:03:35.526Z,1.57
2023-03-27T22:06:11.734Z,1.54
2023-03-27T22:08:41.291Z,1.52
2023-03-27T22:11:09.281Z,1.58
2023-03-27T22:13:36.965Z,1.59
2023-03-27T22:16:12.086Z,1.59
2023-03-27T22:18:39.700Z,1.60
2023-03-27T22:21:32.312Z,1.67
2023-03-27T22:23:59.763Z,1.66
2023-03-27T22:26:29.999Z,1.71
2023-03-27T22:28:57.326Z,1.61
2023-03-27T22:31:25.568Z,1.64
2023-03-27T22:33:53.040Z,1.68
2023-03-27T22:36:21.075Z,1.67
2023-03-27T22:38:48.391Z,1.69
2023-03-27T22:41:16.078Z,1.62
2023-03-27T22:43:43.232Z,1.68
2023-03-27T22:46:15.697Z,1.70
2023-03-27T22:48:43.136Z,1.68
2023-03-27T22:51:11.837Z,1.66
2023-03-27T22:53:39.681Z,1.64
2023-03-27T22:56:07.542Z,1.70
2023-03-27T22:58:34.764Z,1.66
2023-03-27T23:01:04.534Z,1.72
2023-03-27T23:03:32.153Z,1.68
2023-03-27T23:05:59.598Z,1.71
2023-03-27T23:08:27.832Z,1.69
2023-03-27T23:10:59.076Z,1.78
2023-03-27T23:13:27.981Z,1.88
2023-03-27T23:15:55.725Z,1.87
2023-03-27T23:18:25.660Z,1.81
2023-03-27T23:20:54.741Z,1.74
2023-03-27T23:23:22.092Z,1.78
2023-03-27T23:25:49.489Z,1.76
2023-03-27T23:28:16.690Z,1.77
2023-03-27T23:30:52.149Z,1.76
2023-03-27T23:33:19.323Z,1.76
2023-03-27T23:35:46.953Z,1.69
2023-03-27T23:38:14.255Z,1.75
2023-03-27T23:40:41.378Z,1.68
2023-03-27T23:43:08.682Z,1.79
2023-03-27T23:45:35.984Z,1.75
2023-03-27T23:48:03.704Z,1.76
2023-03-27T23:50:30.945Z,1.75
2023-03-27T23:52:58.103Z,1.48
2023-03-27T23:55:25.351Z,1.20
2023-03-27T23:57:52.661Z,0.97
